Terminal Aerodrome Forecast
Issued by NWS Pueblo, CO

Home | Current Version | Previous Version | Text Only | Print | Product List | Glossary On
Versions: 1 2 3 4 5 6 7 8 9 10 11 12 13 14 15 16 17 18 19 20 21 22 23 24 25
000
FTUS45 KPUB 161129
TAFALS
TAF
KALS 161129Z 1612/1712 VRB06KT P6SM SCT200
     FM161800 29008KT P6SM SCT120 BKN200
     FM162000 30010KT P6SM SCT050 BKN120
     FM170000 34012KT P6SM VCSH BKN050
     FM170200 04008KT P6SM VCSH BKN030
      TEMPO 1702/1706 2SM -SN BR BKN020
     FM170600 VRB05KT P6SM SCT050 SCT250=

USA.gov is the U.S. government's official web portal to all federal, state and local government web resources and services.